createdAt,value
2023-01-15T00:00:09.568Z,97.43
2023-01-15T00:02:37.107Z,97.42
2023-01-15T00:05:07.045Z,97.69
2023-01-15T00:07:34.514Z,96.90
2023-01-15T00:10:01.988Z,97.07
2023-01-15T00:12:29.475Z,97.22
2023-01-15T00:14:58.041Z,96.98
2023-01-15T00:17:25.945Z,97.40
2023-01-15T00:19:53.402Z,96.98
2023-01-15T00:22:22.608Z,96.89
2023-01-15T00:25:08.126Z,96.78
2023-01-15T00:27:44.010Z,96.95
2023-01-15T00:30:14.209Z,97.24
2023-01-15T00:32:42.749Z,97.25
2023-01-15T00:35:13.606Z,96.38
2023-01-15T00:37:42.656Z,96.68
2023-01-15T00:40:11.170Z,96.57
2023-01-15T00:42:38.615Z,96.78
2023-01-15T00:45:10.062Z,96.97
2023-01-15T00:47:38.090Z,96.72
2023-01-15T00:50:06.874Z,96.29
2023-01-15T00:52:34.218Z,96.77
2023-01-15T00:55:02.981Z,96.84
2023-01-15T00:57:30.800Z,97.11
2023-01-15T00:59:58.378Z,96.95
2023-01-15T01:02:26.264Z,97.08
2023-01-15T01:04:53.762Z,97.04
2023-01-15T01:07:21.202Z,96.93
2023-01-15T01:09:49.655Z,96.86
2023-01-15T01:12:18.448Z,97.22
2023-01-15T01:14:45.782Z,97.18
2023-01-15T01:17:14.711Z,97.23
2023-01-15T01:19:42.177Z,97.47
2023-01-15T01:22:09.664Z,97.59
2023-01-15T01:24:37.233Z,97.13
2023-01-15T01:27:04.927Z,97.61
2023-01-15T01:29:33.729Z,97.80
2023-01-15T01:32:01.051Z,98.12
2023-01-15T01:34:28.472Z,97.89
2023-01-15T01:36:55.931Z,97.76
2023-01-15T01:39:23.399Z,97.85
2023-01-15T01:41:50.875Z,97.43
2023-01-15T01:44:55.885Z,97.80
2023-01-15T01:47:28.356Z,97.71
2023-01-15T01:50:00.532Z,97.86
2023-01-15T01:52:31.310Z,97.84
2023-01-15T01:54:59.469Z,97.69
2023-01-15T01:57:27.235Z,97.80
2023-01-15T01:59:55.519Z,97.84
2023-01-15T02:02:26.255Z,98.37
2023-01-15T02:04:53.847Z,98.64
2023-01-15T02:07:21.329Z,98.16
2023-01-15T02:09:48.839Z,98.50
2023-01-15T02:12:25.856Z,98.10
2023-01-15T02:15:01.086Z,97.97
2023-01-15T02:17:37.141Z,98.15
2023-01-15T02:20:21.004Z,97.68
2023-01-15T02:23:00.806Z,97.66
2023-01-15T02:25:35.073Z,97.48
2023-01-15T02:28:11.396Z,97.38
2023-01-15T02:30:43.857Z,97.38
2023-01-15T02:33:15.805Z,97.52
2023-01-15T02:35:49.824Z,96.72
2023-01-15T02:38:21.240Z,96.86
2023-01-15T02:40:53.498Z,96.56
2023-01-15T02:43:23.935Z,95.88
2023-01-15T02:45:55.124Z,96.15
2023-01-15T02:48:27.920Z,96.11
2023-01-15T02:51:01.700Z,95.24
2023-01-15T02:53:31.998Z,95.12
2023-01-15T02:56:04.137Z,94.96
2023-01-15T02:58:38.497Z,94.75
2023-01-15T03:01:11.065Z,94.71
2023-01-15T03:03:45.795Z,94.35
2023-01-15T03:06:19.419Z,94.26
2023-01-15T03:08:47.628Z,94.11
2023-01-15T03:11:19.274Z,93.66
2023-01-15T03:13:52.918Z,93.09
2023-01-15T03:16:37.790Z,93.29
2023-01-15T03:19:12.786Z,92.86
2023-01-15T03:21:44.681Z,92.76
2023-01-15T03:24:15.054Z,92.96
2023-01-15T03:26:42.594Z,92.80
2023-01-15T03:29:14.051Z,92.86
2023-01-15T03:31:42.081Z,92.48
2023-01-15T03:34:11.499Z,91.89
2023-01-15T03:36:39.139Z,92.06
2023-01-15T03:39:06.745Z,92.67
2023-01-15T03:41:45.617Z,91.75
2023-01-15T03:44:25.178Z,92.21
2023-01-15T03:47:00.632Z,92.70
2023-01-15T03:49:38.572Z,92.67
2023-01-15T03:52:12.124Z,93.48
2023-01-15T03:54:48.111Z,93.40
2023-01-15T03:57:22.835Z,93.44
2023-01-15T03:59:55.377Z,93.99
2023-01-15T04:02:24.578Z,95.28
2023-01-15T04:04:53.468Z,95.92
2023-01-15T04:07:22.100Z,96.71
2023-01-15T04:09:49.675Z,97.39
2023-01-15T04:12:17.149Z,98.28
2023-01-15T04:14:44.630Z,99.12
2023-01-15T04:17:13.423Z,99.08
2023-01-15T04:19:40.888Z,100.00
2023-01-15T04:22:08.479Z,100.00
2023-01-15T04:24:36.014Z,100.00
2023-01-15T04:27:03.479Z,100.00
2023-01-15T04:29:30.933Z,100.00
2023-01-15T04:31:58.440Z,100.00
2023-01-15T04:34:28.453Z,100.00
2023-01-15T04:36:57.013Z,100.00
2023-01-15T04:39:24.492Z,100.00
2023-01-15T04:42:09.462Z,100.00
2023-01-15T04:44:38.218Z,100.00
2023-01-15T04:47:05.664Z,100.00
2023-01-15T04:49:35.855Z,100.00
2023-01-15T04:52:03.480Z,100.00
2023-01-15T04:54:31.358Z,100.00
2023-01-15T04:56:58.892Z,100.00
2023-01-15T04:59:28.269Z,100.00
2023-01-15T05:02:04.588Z,100.00
2023-01-15T05:04:35.362Z,100.00
2023-01-15T05:07:03.896Z,100.00
2023-01-15T05:09:31.494Z,100.00
2023-01-15T05:12:01.611Z,100.00
2023-01-15T05:14:29.326Z,100.00
2023-01-15T05:16:56.859Z,100.00
2023-01-15T05:19:24.318Z,100.00
2023-01-15T05:21:53.110Z,100.00
2023-01-15T05:24:20.705Z,100.00
2023-01-15T05:26:48.206Z,100.00
2023-01-15T05:29:15.833Z,100.00
2023-01-15T05:31:45.117Z,100.00
2023-01-15T05:34:13.605Z,100.00
2023-01-15T05:36:41.652Z,100.00
2023-01-15T05:39:11.115Z,100.00
2023-01-15T05:41:51.255Z,100.00
2023-01-15T05:44:21.704Z,100.00
2023-01-15T05:46:50.388Z,100.00
2023-01-15T05:49:19.644Z,100.00
2023-01-15T05:51:47.879Z,100.00
2023-01-15T05:54:19.473Z,100.00
2023-01-15T05:56:47.788Z,100.00
2023-01-15T05:59:16.142Z,100.00
2023-01-15T06:01:43.737Z,100.00
2023-01-15T06:04:14.205Z,100.00
2023-01-15T06:06:43.273Z,100.00
2023-01-15T06:09:11.431Z,100.00
2023-01-15T06:11:40.609Z,100.00
2023-01-15T06:14:12.356Z,100.00
2023-01-15T06:16:41.468Z,100.00
2023-01-15T06:19:10.986Z,100.00
2023-01-15T06:21:38.564Z,100.00
2023-01-15T06:24:07.115Z,100.00
2023-01-15T06:26:34.676Z,100.00
2023-01-15T06:29:03.556Z,100.00
2023-01-15T06:31:32.587Z,100.00
2023-01-15T06:34:00.156Z,100.00
2023-01-15T06:36:28.532Z,100.00
2023-01-15T06:38:56.531Z,100.00
2023-01-15T06:41:43.854Z,100.00
2023-01-15T06:44:32.679Z,100.00
2023-01-15T06:47:22.881Z,100.00
2023-01-15T06:49:52.218Z,100.00
2023-01-15T06:52:19.709Z,100.00
2023-01-15T06:54:47.589Z,100.00
2023-01-15T06:57:15.035Z,100.00
2023-01-15T06:59:43.856Z,100.00
2023-01-15T07:02:11.650Z,100.00
2023-01-15T07:04:41.532Z,100.00
2023-01-15T07:07:10.005Z,100.00
2023-01-15T07:09:38.028Z,100.00
2023-01-15T07:12:05.657Z,100.00
2023-01-15T07:14:33.196Z,100.00
2023-01-15T07:17:02.046Z,100.00
2023-01-15T07:19:29.437Z,100.00
2023-01-15T07:21:56.873Z,100.00
2023-01-15T07:24:24.456Z,100.00
2023-01-15T07:26:51.927Z,100.00
2023-01-15T07:29:19.727Z,100.00
2023-01-15T07:31:47.279Z,100.00
2023-01-15T07:34:16.114Z,100.00
2023-01-15T07:36:43.452Z,100.00
2023-01-15T07:39:12.749Z,100.00
2023-01-15T07:41:57.789Z,100.00
2023-01-15T07:44:43.283Z,100.00
2023-01-15T07:47:35.304Z,100.00
2023-01-15T07:50:06.440Z,100.00
2023-01-15T07:52:33.920Z,100.00
2023-01-15T07:55:01.994Z,100.00
2023-01-15T07:57:29.490Z,100.00
2023-01-15T07:59:57.002Z,100.00
2023-01-15T08:02:24.678Z,100.00
2023-01-15T08:04:52.151Z,100.00
2023-01-15T08:07:20.969Z,100.00
2023-01-15T08:09:48.419Z,100.00
2023-01-15T08:12:33.564Z,100.00
2023-01-15T08:15:16.350Z,100.00
2023-01-15T08:17:45.734Z,100.00
2023-01-15T08:20:16.017Z,100.00
2023-01-15T08:22:45.870Z,100.00
2023-01-15T08:25:16.570Z,100.00
2023-01-15T08:27:44.493Z,100.00
2023-01-15T08:30:14.539Z,100.00
2023-01-15T08:32:42.174Z,100.00
2023-01-15T08:35:10.420Z,100.00
2023-01-15T08:37:38.024Z,100.00
2023-01-15T08:40:08.098Z,100.00
2023-01-15T08:42:35.774Z,100.00
2023-01-15T08:45:03.375Z,100.00
2023-01-15T08:47:32.337Z,100.00
2023-01-15T08:49:59.935Z,100.00
2023-01-15T08:52:27.419Z,100.00
2023-01-15T08:54:54.909Z,100.00
2023-01-15T08:57:23.750Z,100.00
2023-01-15T08:59:51.196Z,100.00
2023-01-15T09:02:18.585Z,100.00
2023-01-15T09:04:45.925Z,100.00
2023-01-15T09:07:13.597Z,100.00
2023-01-15T09:09:41.118Z,100.00
2023-01-15T09:12:08.896Z,100.00
2023-01-15T09:14:56.565Z,100.00
2023-01-15T09:17:25.208Z,100.00
2023-01-15T09:19:52.773Z,100.00
2023-01-15T09:22:20.280Z,100.00
2023-01-15T09:24:47.750Z,100.00
2023-01-15T09:27:15.296Z,100.00
2023-01-15T09:29:44.074Z,100.00
2023-01-15T09:32:11.394Z,100.00
2023-01-15T09:34:38.887Z,100.00
2023-01-15T09:37:06.331Z,100.00
2023-01-15T09:39:33.825Z,100.00
2023-01-15T09:42:18.381Z,100.00
2023-01-15T09:45:04.353Z,100.00
2023-01-15T09:47:37.493Z,100.00
2023-01-15T09:50:19.217Z,100.00
2023-01-15T09:53:13.360Z,100.00
2023-01-15T09:55:46.427Z,100.00
2023-01-15T09:58:15.650Z,100.00
2023-01-15T10:00:49.677Z,100.00
2023-01-15T10:03:26.171Z,100.00
2023-01-15T10:06:03.233Z,100.00
2023-01-15T10:08:34.829Z,100.00
2023-01-15T10:11:06.587Z,100.00
2023-01-15T10:13:42.565Z,100.00
2023-01-15T10:16:14.129Z,100.00
2023-01-15T10:18:43.406Z,100.00
2023-01-15T10:21:30.906Z,100.00
2023-01-15T10:24:05.860Z,100.00
2023-01-15T10:26:35.257Z,100.00
2023-01-15T10:29:07.228Z,100.00
2023-01-15T10:31:51.010Z,100.00
2023-01-15T10:34:56.461Z,100.00
2023-01-15T10:37:29.041Z,100.00
2023-01-15T10:40:14.394Z,100.00
2023-01-15T10:42:50.870Z,100.00
2023-01-15T10:45:21.793Z,100.00
2023-01-15T10:47:56.346Z,100.00
2023-01-15T10:50:25.749Z,100.00
2023-01-15T10:53:03.530Z,100.00
2023-01-15T10:55:35.759Z,100.00
2023-01-15T10:58:12.350Z,100.00
2023-01-15T11:00:40.603Z,100.00
2023-01-15T11:03:16.673Z,100.00
2023-01-15T11:05:45.693Z,100.00
2023-01-15T11:09:06.111Z,100.00
2023-01-15T11:11:17.049Z,100.00
2023-01-15T11:14:11.405Z,100.00
2023-01-15T11:16:58.135Z,100.00
2023-01-15T11:19:40.181Z,100.00
2023-01-15T11:22:11.009Z,100.00
2023-01-15T11:24:46.373Z,100.00
2023-01-15T11:27:17.297Z,100.00
2023-01-15T11:29:46.539Z,100.00
2023-01-15T11:32:22.863Z,100.00
2023-01-15T11:35:00.011Z,100.00
2023-01-15T11:37:28.592Z,100.00
2023-01-15T11:39:57.445Z,100.00
2023-01-15T11:42:42.565Z,100.00
2023-01-15T11:45:33.618Z,100.00
2023-01-15T11:48:18.770Z,100.00
2023-01-15T11:50:58.069Z,100.00
2023-01-15T11:53:30.205Z,100.00
2023-01-15T11:56:01.180Z,100.00
2023-01-15T11:58:33.468Z,100.00
2023-01-15T12:01:02.163Z,100.00
2023-01-15T12:03:32.336Z,100.00
2023-01-15T12:06:05.425Z,100.00
2023-01-15T12:08:50.482Z,100.00
2023-01-15T12:11:31.862Z,100.00
2023-01-15T12:14:18.026Z,100.00
2023-01-15T12:16:51.567Z,100.00
2023-01-15T12:19:27.366Z,100.00
2023-01-15T12:22:18.974Z,100.00
2023-01-15T12:25:19.525Z,100.00
2023-01-15T12:28:07.710Z,100.00
2023-01-15T12:30:43.294Z,100.00
2023-01-15T12:33:21.741Z,100.00
2023-01-15T12:35:56.886Z,100.00
2023-01-15T12:38:35.600Z,100.00
2023-01-15T12:41:11.355Z,100.00
2023-01-15T12:43:56.766Z,100.00
2023-01-15T12:46:29.910Z,100.00
2023-01-15T12:49:04.297Z,100.00
2023-01-15T12:51:39.415Z,100.00
2023-01-15T12:54:12.051Z,100.00
2023-01-15T12:56:48.979Z,100.00
2023-01-15T12:59:23.483Z,100.00
2023-01-15T13:01:59.421Z,100.00
2023-01-15T13:04:33.514Z,100.00
2023-01-15T13:07:09.360Z,100.00
2023-01-15T13:09:45.020Z,100.00
2023-01-15T13:12:16.926Z,100.00
2023-01-15T13:14:46.725Z,100.00
2023-01-15T13:17:26.895Z,100.00
2023-01-15T13:20:12.670Z,100.00
2023-01-15T13:22:46.734Z,100.00
2023-01-15T13:25:35.989Z,100.00
2023-01-15T13:28:18.961Z,100.00
2023-01-15T13:31:00.594Z,100.00
2023-01-15T13:33:33.317Z,100.00
2023-01-15T13:36:10.670Z,100.00
2023-01-15T13:38:41.756Z,100.00
2023-01-15T13:41:11.156Z,100.00
2023-01-15T13:43:41.727Z,100.00
2023-01-15T13:46:12.535Z,100.00
2023-01-15T13:48:45.634Z,100.00
2023-01-15T13:51:28.744Z,100.00
2023-01-15T13:53:58.612Z,100.00
2023-01-15T13:56:29.720Z,100.00
2023-01-15T13:58:59.931Z,100.00
2023-01-15T14:01:34.360Z,100.00
2023-01-15T14:04:06.282Z,100.00
2023-01-15T14:06:41.767Z,100.00
2023-01-15T14:09:12.462Z,100.00
2023-01-15T14:11:55.919Z,100.00
2023-01-15T14:15:02.199Z,99.45
2023-01-15T14:17:57.781Z,100.00
2023-01-15T14:20:38.635Z,100.00
2023-01-15T14:23:28.545Z,99.31
2023-01-15T14:26:04.985Z,99.04
2023-01-15T14:28:48.227Z,99.98
2023-01-15T14:31:31.414Z,100.00
2023-01-15T14:34:13.695Z,99.10
2023-01-15T14:36:50.454Z,99.43
2023-01-15T14:39:28.537Z,98.94
2023-01-15T14:42:19.317Z,98.03
2023-01-15T14:44:55.592Z,98.55
2023-01-15T14:47:29.368Z,99.15
2023-01-15T14:50:20.168Z,98.91
2023-01-15T14:52:51.662Z,98.67
2023-01-15T14:55:20.862Z,98.49
2023-01-15T14:57:58.000Z,96.99
2023-01-15T15:00:33.638Z,96.86
2023-01-15T15:03:04.361Z,96.79
2023-01-15T15:05:34.977Z,96.13
2023-01-15T15:08:04.307Z,95.69
2023-01-15T15:10:34.858Z,94.93
2023-01-15T15:13:09.096Z,97.55
2023-01-15T15:15:44.820Z,94.25
2023-01-15T15:18:23.387Z,94.53
2023-01-15T15:20:54.599Z,95.23
2023-01-15T15:23:28.927Z,93.53
2023-01-15T15:25:57.840Z,93.50
2023-01-15T15:28:25.315Z,92.38
2023-01-15T15:30:57.293Z,93.36
2023-01-15T15:33:27.893Z,92.68
2023-01-15T15:35:58.042Z,92.88
2023-01-15T15:38:26.757Z,92.81
2023-01-15T15:40:57.412Z,91.89
2023-01-15T15:43:47.629Z,92.16
2023-01-15T15:46:48.132Z,92.81
2023-01-15T15:49:16.077Z,92.43
2023-01-15T15:51:48.541Z,91.96
2023-01-15T15:54:18.682Z,91.51
2023-01-15T15:56:51.174Z,93.14
2023-01-15T15:59:26.803Z,91.13
2023-01-15T16:01:56.431Z,90.15
2023-01-15T16:04:25.135Z,90.92
2023-01-15T16:06:52.920Z,91.28
2023-01-15T16:09:24.486Z,90.41
2023-01-15T16:11:53.878Z,91.17
2023-01-15T16:14:22.648Z,90.37
2023-01-15T16:16:51.431Z,91.13
2023-01-15T16:19:25.363Z,92.24
2023-01-15T16:21:54.180Z,91.32
2023-01-15T16:24:27.500Z,91.02
2023-01-15T16:27:00.965Z,91.39
2023-01-15T16:29:31.597Z,89.65
2023-01-15T16:31:59.823Z,90.88
2023-01-15T16:34:33.428Z,91.84
2023-01-15T16:37:02.800Z,89.92
2023-01-15T16:39:37.665Z,90.10
2023-01-15T16:42:05.527Z,90.95
2023-01-15T16:44:38.514Z,91.83
2023-01-15T16:47:06.755Z,90.37
2023-01-15T16:49:35.791Z,91.09
2023-01-15T16:52:24.499Z,91.62
2023-01-15T16:54:51.963Z,90.29
2023-01-15T16:57:35.155Z,89.36
2023-01-15T17:00:06.677Z,90.53
2023-01-15T17:02:45.020Z,89.80
2023-01-15T17:05:22.650Z,89.68
2023-01-15T17:07:51.429Z,88.77
2023-01-15T17:10:22.732Z,89.45
2023-01-15T17:12:50.906Z,90.24
2023-01-15T17:15:37.812Z,89.72
2023-01-15T17:18:27.829Z,89.69
2023-01-15T17:20:57.023Z,89.41
2023-01-15T17:23:31.933Z,90.26
2023-01-15T17:25:59.577Z,89.39
2023-01-15T17:28:27.204Z,89.51
2023-01-15T17:31:00.395Z,90.29
2023-01-15T17:33:28.361Z,89.12
2023-01-15T17:36:00.568Z,89.02
2023-01-15T17:38:28.230Z,91.00
2023-01-15T17:40:57.619Z,90.04
2023-01-15T17:43:26.321Z,89.03
2023-01-15T17:45:53.825Z,89.60
2023-01-15T17:48:23.645Z,89.61
2023-01-15T17:50:51.151Z,89.93
2023-01-15T17:53:19.977Z,90.17
2023-01-15T17:56:05.063Z,90.50
2023-01-15T17:58:50.441Z,91.95
2023-01-15T18:01:38.670Z,91.44
2023-01-15T18:04:24.800Z,91.43
2023-01-15T18:06:54.651Z,90.13
2023-01-15T18:09:24.369Z,90.31
2023-01-15T18:11:51.834Z,90.06
2023-01-15T18:14:19.341Z,90.02
2023-01-15T18:16:46.949Z,90.52
2023-01-15T18:19:14.500Z,91.66
2023-01-15T18:21:42.060Z,91.34
2023-01-15T18:24:11.686Z,90.73
2023-01-15T18:26:42.436Z,90.72
2023-01-15T18:29:11.401Z,91.80
2023-01-15T18:31:39.163Z,90.40
2023-01-15T18:34:07.253Z,90.16
2023-01-15T18:36:34.764Z,91.04
2023-01-15T18:39:06.093Z,90.30
2023-01-15T18:41:52.229Z,91.34
2023-01-15T18:44:40.064Z,90.80
2023-01-15T18:47:11.983Z,89.45
2023-01-15T18:49:39.987Z,90.44
2023-01-15T18:52:25.478Z,89.92
2023-01-15T18:54:53.282Z,90.27
2023-01-15T18:57:20.938Z,89.76
2023-01-15T18:59:50.376Z,89.68
2023-01-15T19:02:19.509Z,90.17
2023-01-15T19:04:48.374Z,90.05
2023-01-15T19:07:16.436Z,89.56
2023-01-15T19:09:44.043Z,89.67
2023-01-15T19:12:11.849Z,90.49
2023-01-15T19:14:56.873Z,89.91
2023-01-15T19:17:55.846Z,89.60
2023-01-15T19:20:23.367Z,89.93
2023-01-15T19:22:59.948Z,89.20
2023-01-15T19:25:29.807Z,89.74
2023-01-15T19:27:57.901Z,89.75
2023-01-15T19:30:26.187Z,89.73
2023-01-15T19:32:55.821Z,90.73
2023-01-15T19:35:23.295Z,90.67
2023-01-15T19:37:51.022Z,89.71
2023-01-15T19:40:20.772Z,90.05
2023-01-15T19:43:08.329Z,89.42
2023-01-15T19:46:10.105Z,88.99
2023-01-15T19:48:56.515Z,89.73
2023-01-15T19:51:44.052Z,88.19
2023-01-15T19:54:11.553Z,88.69
2023-01-15T19:56:39.930Z,88.15
2023-01-15T19:59:08.300Z,88.37
2023-01-15T20:01:35.892Z,88.53
2023-01-15T20:04:04.988Z,87.87
2023-01-15T20:06:32.292Z,88.02
2023-01-15T20:08:59.753Z,88.38
2023-01-15T20:11:47.691Z,87.69
2023-01-15T20:14:14.194Z,88.24
2023-01-15T20:16:41.646Z,88.35
2023-01-15T20:19:10.503Z,88.66
2023-01-15T20:21:37.946Z,88.69
2023-01-15T20:24:05.765Z,87.83
2023-01-15T20:26:33.215Z,88.13
2023-01-15T20:29:00.791Z,89.16
2023-01-15T20:31:28.311Z,87.98
2023-01-15T20:33:57.703Z,88.69
2023-01-15T20:36:26.614Z,88.25
2023-01-15T20:38:54.062Z,87.92
2023-01-15T20:41:45.474Z,88.00
2023-01-15T20:44:30.709Z,88.07
2023-01-15T20:46:58.793Z,88.31
2023-01-15T20:49:27.132Z,89.38
2023-01-15T20:51:56.934Z,88.43
2023-01-15T20:54:26.177Z,89.85
2023-01-15T20:56:53.670Z,88.30
2023-01-15T20:59:21.162Z,89.25
2023-01-15T21:01:48.844Z,90.12
2023-01-15T21:04:16.419Z,89.32
2023-01-15T21:06:44.036Z,89.81
2023-01-15T21:09:12.887Z,88.16
2023-01-15T21:11:43.339Z,88.48
2023-01-15T21:14:10.825Z,89.08
2023-01-15T21:16:38.449Z,88.29
2023-01-15T21:19:06.002Z,88.96
2023-01-15T21:21:33.463Z,89.34
2023-01-15T21:24:01.966Z,89.49
2023-01-15T21:26:30.981Z,89.60
2023-01-15T21:28:58.606Z,89.33
2023-01-15T21:31:26.194Z,89.08
2023-01-15T21:33:54.393Z,89.57
2023-01-15T21:36:22.285Z,89.32
2023-01-15T21:38:51.080Z,89.38
2023-01-15T21:41:18.606Z,90.76
2023-01-15T21:44:04.860Z,90.82
2023-01-15T21:46:32.298Z,89.75
2023-01-15T21:49:00.119Z,89.70
2023-01-15T21:51:28.086Z,90.86
2023-01-15T21:53:55.547Z,90.21
2023-01-15T21:56:23.036Z,89.61
2023-01-15T21:58:51.848Z,89.48
2023-01-15T22:01:20.726Z,89.44
2023-01-15T22:03:48.250Z,89.68
2023-01-15T22:06:15.971Z,90.06
2023-01-15T22:08:43.443Z,90.24
2023-01-15T22:11:11.487Z,90.11
2023-01-15T22:13:41.030Z,89.33
2023-01-15T22:16:09.879Z,88.83
2023-01-15T22:18:37.543Z,89.61
2023-01-15T22:21:07.460Z,90.24
2023-01-15T22:23:35.398Z,89.48
2023-01-15T22:26:02.936Z,88.96
2023-01-15T22:28:30.402Z,88.35
2023-01-15T22:30:58.191Z,88.61
2023-01-15T22:33:26.999Z,90.01
2023-01-15T22:35:58.543Z,89.59
2023-01-15T22:38:26.202Z,89.87
2023-01-15T22:40:53.776Z,89.00
2023-01-15T22:43:24.097Z,88.94
2023-01-15T22:45:51.635Z,89.30
2023-01-15T22:48:21.501Z,88.40
2023-01-15T22:50:50.320Z,88.28
2023-01-15T22:53:17.775Z,88.15
2023-01-15T22:55:45.211Z,89.39
2023-01-15T22:58:12.666Z,88.08
2023-01-15T23:00:40.352Z,89.36
2023-01-15T23:03:08.079Z,88.97
2023-01-15T23:05:38.798Z,89.05
2023-01-15T23:08:09.242Z,88.87
2023-01-15T23:10:37.186Z,88.01
2023-01-15T23:13:04.884Z,88.80
2023-01-15T23:15:32.369Z,88.86
2023-01-15T23:17:59.867Z,88.64
2023-01-15T23:20:27.326Z,88.52
2023-01-15T23:22:54.961Z,89.40
2023-01-15T23:25:24.197Z,88.70
2023-01-15T23:27:51.666Z,89.25
2023-01-15T23:30:19.347Z,88.65
2023-01-15T23:32:46.802Z,89.86
2023-01-15T23:35:14.276Z,88.66
2023-01-15T23:37:41.728Z,89.58
2023-01-15T23:40:10.541Z,88.82
2023-01-15T23:42:57.023Z,89.31
2023-01-15T23:45:42.179Z,88.55
2023-01-15T23:48:09.707Z,88.51
2023-01-15T23:50:37.258Z,88.17
2023-01-15T23:53:05.434Z,87.57
2023-01-15T23:55:32.898Z,88.27
2023-01-15T23:58:01.673Z,88.55
